createdAt,value
2023-03-03T00:00:02.325Z,2.30
2023-03-03T00:01:00.425Z,2.30
2023-03-03T00:02:00.457Z,2.30
2023-03-03T00:03:03.561Z,2.30
2023-03-03T00:04:00.449Z,2.30
2023-03-03T00:05:00.475Z,2.30
2023-03-03T00:06:01.422Z,2.30
2023-03-03T00:07:00.416Z,2.30
2023-03-03T00:08:00.456Z,2.30
2023-03-03T00:09:00.422Z,2.30
2023-03-03T00:10:00.453Z,2.30
2023-03-03T00:11:00.464Z,2.30
2023-03-03T00:12:02.135Z,2.30
2023-03-03T00:13:00.426Z,3.10
2023-03-03T00:14:00.463Z,3.10
2023-03-03T00:15:00.418Z,3.10
2023-03-03T00:16:10.558Z,3.10
2023-03-03T00:17:06.145Z,3.10
2023-03-03T00:18:00.435Z,3.10
2023-03-03T00:19:00.455Z,3.10
2023-03-03T00:20:01.247Z,3.10
2023-03-03T00:21:01.557Z,3.10
2023-03-03T00:22:00.460Z,3.10
2023-03-03T00:23:10.412Z,3.10
2023-03-03T00:24:10.404Z,3.10
2023-03-03T00:25:10.397Z,3.10
2023-03-03T00:26:00.428Z,3.10
2023-03-03T00:27:01.356Z,3.10
2023-03-03T00:28:06.710Z,3.10
2023-03-03T00:29:00.446Z,3.10
2023-03-03T00:30:00.786Z,3.10
2023-03-03T00:31:01.215Z,3.10
2023-03-03T00:32:03.695Z,3.10
2023-03-03T00:33:00.503Z,3.10
2023-03-03T00:34:10.370Z,3.10
2023-03-03T00:35:10.385Z,3.10
2023-03-03T00:36:10.388Z,3.10
2023-03-03T00:37:00.428Z,3.10
2023-03-03T00:38:01.722Z,3.10
2023-03-03T00:39:10.379Z,3.10
2023-03-03T00:40:10.368Z,3.10
2023-03-03T00:41:00.461Z,3.10
2023-03-03T00:42:00.772Z,3.10
2023-03-03T00:43:01.371Z,4.50
2023-03-03T00:44:07.056Z,4.50
2023-03-03T00:45:00.622Z,4.50
2023-03-03T00:46:00.974Z,4.50
2023-03-03T00:47:10.401Z,4.50
2023-03-03T00:48:08.986Z,4.50
2023-03-03T00:49:00.810Z,4.50
2023-03-03T00:50:10.391Z,4.50
2023-03-03T00:51:01.273Z,4.50
2023-03-03T00:52:00.428Z,4.50
2023-03-03T00:53:04.704Z,4.50
2023-03-03T00:54:00.437Z,4.50
2023-03-03T00:55:00.536Z,4.50
2023-03-03T00:56:00.427Z,4.50
2023-03-03T00:57:00.437Z,4.50
2023-03-03T00:58:00.716Z,4.50
2023-03-03T00:59:00.460Z,4.50
2023-03-03T01:00:00.441Z,4.50
2023-03-03T01:01:00.472Z,4.50
2023-03-03T01:02:00.536Z,4.50
2023-03-03T01:03:02.007Z,4.50
2023-03-03T01:04:00.428Z,4.50
2023-03-03T01:05:00.462Z,4.50
2023-03-03T01:06:00.446Z,4.50
2023-03-03T01:07:00.517Z,4.50
2023-03-03T01:08:00.955Z,4.50
2023-03-03T01:09:00.436Z,4.50
2023-03-03T01:10:00.454Z,4.50
2023-03-03T01:11:07.567Z,4.50
2023-03-03T01:12:00.486Z,4.50
2023-03-03T01:13:00.453Z,3.70
2023-03-03T01:14:00.539Z,3.70
2023-03-03T01:15:00.544Z,3.70
2023-03-03T01:16:01.168Z,3.70
2023-03-03T01:17:00.446Z,3.70
2023-03-03T01:18:00.749Z,3.70
2023-03-03T01:19:00.456Z,3.70
2023-03-03T01:20:00.516Z,3.70
2023-03-03T01:21:00.427Z,3.70
2023-03-03T01:22:00.634Z,3.70
2023-03-03T01:23:00.463Z,3.70
2023-03-03T01:24:00.431Z,3.70
2023-03-03T01:25:00.494Z,3.70
2023-03-03T01:26:00.948Z,3.70
2023-03-03T01:27:00.471Z,3.70
2023-03-03T01:28:00.471Z,3.70
2023-03-03T01:29:00.429Z,3.70
2023-03-03T01:30:00.890Z,3.70
2023-03-03T01:31:01.185Z,3.70
2023-03-03T01:32:00.489Z,3.70
2023-03-03T01:33:00.729Z,3.70
2023-03-03T01:34:00.537Z,3.70
2023-03-03T01:35:00.444Z,3.70
2023-03-03T01:36:00.903Z,3.70
2023-03-03T01:37:00.422Z,3.70
2023-03-03T01:38:00.442Z,3.70
2023-03-03T01:39:00.678Z,3.70
2023-03-03T01:40:00.753Z,3.70
2023-03-03T01:41:00.445Z,3.70
2023-03-03T01:42:03.021Z,3.70
2023-03-03T01:43:00.672Z,4.10
2023-03-03T01:44:00.428Z,4.10
2023-03-03T01:45:10.344Z,4.10
2023-03-03T01:46:00.447Z,4.10
2023-03-03T01:47:03.690Z,4.10
2023-03-03T01:48:10.366Z,4.10
2023-03-03T01:49:03.855Z,4.10
2023-03-03T01:50:05.411Z,4.10
2023-03-03T01:51:01.713Z,4.10
2023-03-03T01:52:01.837Z,4.10
2023-03-03T01:53:02.074Z,4.10
2023-03-03T01:54:02.731Z,4.10
2023-03-03T01:55:02.392Z,4.10
2023-03-03T01:56:01.923Z,4.10
2023-03-03T01:57:02.411Z,4.10
2023-03-03T01:58:04.033Z,4.10
2023-03-03T01:59:04.604Z,4.10
2023-03-03T02:00:01.368Z,4.10
2023-03-03T02:01:03.080Z,4.10
2023-03-03T02:02:00.554Z,4.10
2023-03-03T02:03:00.596Z,4.10
2023-03-03T02:04:00.442Z,4.10
2023-03-03T02:05:00.436Z,4.10
2023-03-03T02:06:03.673Z,4.10
2023-03-03T02:07:04.040Z,4.10
2023-03-03T02:08:00.735Z,4.10
2023-03-03T02:09:10.360Z,4.10
2023-03-03T02:10:01.429Z,4.10
2023-03-03T02:11:01.474Z,4.10
2023-03-03T02:12:03.088Z,4.10
2023-03-03T02:13:00.511Z,4.80
2023-03-03T02:14:00.427Z,4.80
2023-03-03T02:15:00.529Z,4.80
2023-03-03T02:16:00.514Z,4.80
2023-03-03T02:17:00.428Z,4.80
2023-03-03T02:18:03.968Z,4.80
2023-03-03T02:19:00.502Z,4.80
2023-03-03T02:20:10.363Z,4.80
2023-03-03T02:21:03.793Z,4.80
2023-03-03T02:22:00.578Z,4.80
2023-03-03T02:23:10.356Z,4.80
2023-03-03T02:24:10.344Z,4.80
2023-03-03T02:25:02.403Z,4.80
2023-03-03T02:26:03.709Z,4.80
2023-03-03T02:27:00.565Z,4.80
2023-03-03T02:28:01.002Z,4.80
2023-03-03T02:29:00.448Z,4.80
2023-03-03T02:30:10.359Z,4.80
2023-03-03T02:31:00.775Z,4.80
2023-03-03T02:32:00.532Z,4.80
2023-03-03T02:33:00.466Z,4.80
2023-03-03T02:34:00.611Z,4.80
2023-03-03T02:35:00.430Z,4.80
2023-03-03T02:36:00.642Z,4.80
2023-03-03T02:37:02.190Z,4.80
2023-03-03T02:38:06.253Z,4.80
2023-03-03T02:39:03.685Z,4.80
2023-03-03T02:40:00.535Z,4.80
2023-03-03T02:41:00.416Z,4.80
2023-03-03T02:42:05.556Z,4.80
2023-03-03T02:43:01.926Z,4.30
2023-03-03T02:44:03.648Z,4.30
2023-03-03T02:45:00.425Z,4.30
2023-03-03T02:46:00.466Z,4.30
2023-03-03T02:47:00.490Z,4.30
2023-03-03T02:48:00.449Z,4.30
2023-03-03T02:49:00.640Z,4.30
2023-03-03T02:50:00.424Z,4.30
2023-03-03T02:51:00.440Z,4.30
2023-03-03T02:52:01.577Z,4.30
2023-03-03T02:53:00.440Z,4.30
2023-03-03T02:54:00.784Z,4.30
2023-03-03T02:55:00.428Z,4.30
2023-03-03T02:56:00.454Z,4.30
2023-03-03T02:57:00.472Z,4.30
2023-03-03T02:58:00.479Z,4.30
2023-03-03T02:59:00.501Z,4.30
2023-03-03T03:00:00.429Z,4.30
2023-03-03T03:01:00.581Z,4.30
2023-03-03T03:02:00.470Z,4.30
2023-03-03T03:03:00.424Z,4.30
2023-03-03T03:04:00.469Z,4.30
2023-03-03T03:05:00.432Z,4.30
2023-03-03T03:06:00.421Z,4.30
2023-03-03T03:07:00.444Z,4.30
2023-03-03T03:08:00.433Z,4.30
2023-03-03T03:09:00.436Z,4.30
2023-03-03T03:10:00.442Z,4.30
2023-03-03T03:11:00.446Z,4.30
2023-03-03T03:12:00.425Z,4.30
2023-03-03T03:13:00.424Z,4.10
2023-03-03T03:14:01.223Z,4.10
2023-03-03T03:15:00.457Z,4.10
2023-03-03T03:16:00.849Z,4.10
2023-03-03T03:17:00.413Z,4.10
2023-03-03T03:18:00.558Z,4.10
2023-03-03T03:19:00.978Z,4.10
2023-03-03T03:20:00.414Z,4.10
2023-03-03T03:21:08.885Z,4.10
2023-03-03T03:22:00.435Z,4.10
2023-03-03T03:23:00.410Z,4.10
2023-03-03T03:24:00.476Z,4.10
2023-03-03T03:25:00.418Z,4.10
2023-03-03T03:26:00.464Z,4.10
2023-03-03T03:27:00.449Z,4.10
2023-03-03T03:28:01.062Z,4.10
2023-03-03T03:29:00.428Z,4.10
2023-03-03T03:30:00.445Z,4.10
2023-03-03T03:31:01.267Z,4.10
2023-03-03T03:32:00.490Z,4.10
2023-03-03T03:33:00.461Z,4.10
2023-03-03T03:34:00.418Z,4.10
2023-03-03T03:35:00.422Z,4.10
2023-03-03T03:36:00.932Z,4.10
2023-03-03T03:37:00.456Z,4.10
2023-03-03T03:38:00.478Z,4.10
2023-03-03T03:39:00.431Z,4.10
2023-03-03T03:40:00.433Z,4.10
2023-03-03T03:41:00.437Z,4.10
2023-03-03T03:42:00.436Z,4.10
2023-03-03T03:43:00.440Z,4.10
2023-03-03T03:44:00.422Z,4.10
2023-03-03T03:45:00.424Z,4.10
2023-03-03T03:46:00.492Z,4.10
2023-03-03T03:47:00.437Z,4.10
2023-03-03T03:48:00.481Z,4.10
2023-03-03T03:49:00.422Z,4.10
2023-03-03T03:50:00.418Z,4.10
2023-03-03T03:51:00.509Z,4.10
2023-03-03T03:52:00.445Z,4.10
2023-03-03T03:53:00.556Z,4.10
2023-03-03T03:54:00.460Z,4.10
2023-03-03T03:55:00.431Z,4.10
2023-03-03T03:56:00.434Z,4.10
2023-03-03T03:57:00.472Z,4.10
2023-03-03T03:58:00.505Z,4.10
2023-03-03T03:59:00.462Z,4.10
2023-03-03T04:00:00.436Z,4.10
2023-03-03T04:01:01.485Z,4.10
2023-03-03T04:02:00.493Z,4.10
2023-03-03T04:03:00.578Z,4.10
2023-03-03T04:04:00.432Z,4.10
2023-03-03T04:05:00.468Z,4.10
2023-03-03T04:06:00.493Z,4.10
2023-03-03T04:07:00.422Z,4.10
2023-03-03T04:08:00.465Z,4.10
2023-03-03T04:09:00.496Z,4.10
2023-03-03T04:10:00.433Z,4.10
2023-03-03T04:11:00.522Z,4.10
2023-03-03T04:12:00.493Z,4.10
2023-03-03T04:13:00.425Z,4.20
2023-03-03T04:14:00.451Z,4.20
2023-03-03T04:15:00.434Z,4.20
2023-03-03T04:16:00.991Z,4.20
2023-03-03T04:17:00.453Z,4.20
2023-03-03T04:18:00.434Z,4.20
2023-03-03T04:19:00.485Z,4.20
2023-03-03T04:20:00.456Z,4.20
2023-03-03T04:21:00.442Z,4.20
2023-03-03T04:22:00.460Z,4.20
2023-03-03T04:23:00.471Z,4.20
2023-03-03T04:24:00.424Z,4.20
2023-03-03T04:25:00.864Z,4.20
2023-03-03T04:26:00.435Z,4.20
2023-03-03T04:27:00.525Z,4.20
2023-03-03T04:28:00.440Z,4.20
2023-03-03T04:29:00.446Z,4.20
2023-03-03T04:30:00.802Z,4.20
2023-03-03T04:31:00.593Z,4.20
2023-03-03T04:32:00.541Z,4.20
2023-03-03T04:33:00.446Z,4.20
2023-03-03T04:34:00.470Z,4.20
2023-03-03T04:35:07.650Z,4.20
2023-03-03T04:36:00.754Z,4.20
2023-03-03T04:37:00.450Z,4.20
2023-03-03T04:38:00.448Z,4.20
2023-03-03T04:39:00.472Z,4.20
2023-03-03T04:40:00.473Z,4.20
2023-03-03T04:41:00.517Z,4.20
2023-03-03T04:42:00.430Z,4.20
2023-03-03T04:43:00.486Z,3.50
2023-03-03T04:44:00.446Z,3.50
2023-03-03T04:45:00.436Z,3.50
2023-03-03T04:46:00.514Z,3.50
2023-03-03T04:47:00.432Z,3.50
2023-03-03T04:48:00.444Z,3.50
2023-03-03T04:49:00.452Z,3.50
2023-03-03T04:50:00.497Z,3.50
2023-03-03T04:51:00.433Z,3.50
2023-03-03T04:52:00.504Z,3.50
2023-03-03T04:53:00.431Z,3.50
2023-03-03T04:54:00.454Z,3.50
2023-03-03T04:55:00.453Z,3.50
2023-03-03T04:56:00.441Z,3.50
2023-03-03T04:57:00.451Z,3.50
2023-03-03T04:58:00.463Z,3.50
2023-03-03T04:59:00.440Z,3.50
2023-03-03T05:00:00.444Z,3.50
2023-03-03T05:01:00.554Z,3.50
2023-03-03T05:02:00.435Z,3.50
2023-03-03T05:03:00.977Z,3.50
2023-03-03T05:04:00.432Z,3.50
2023-03-03T05:05:00.479Z,3.50
2023-03-03T05:06:00.436Z,3.50
2023-03-03T05:07:00.497Z,3.50
2023-03-03T05:08:01.500Z,3.50
2023-03-03T05:09:00.437Z,3.50
2023-03-03T05:10:00.498Z,3.50
2023-03-03T05:11:00.447Z,3.50
2023-03-03T05:12:00.463Z,3.50
2023-03-03T05:13:00.460Z,3.90
2023-03-03T05:14:00.457Z,3.90
2023-03-03T05:15:00.449Z,3.90
2023-03-03T05:16:00.489Z,3.90
2023-03-03T05:17:00.958Z,3.90
2023-03-03T05:18:00.435Z,3.90
2023-03-03T05:19:00.503Z,3.90
2023-03-03T05:20:00.479Z,3.90
2023-03-03T05:21:00.442Z,3.90
2023-03-03T05:22:00.599Z,3.90
2023-03-03T05:23:00.433Z,3.90
2023-03-03T05:24:00.457Z,3.90
2023-03-03T05:25:00.478Z,3.90
2023-03-03T05:26:00.434Z,3.90
2023-03-03T05:27:00.489Z,3.90
2023-03-03T05:28:00.438Z,3.90
2023-03-03T05:29:00.460Z,3.90
2023-03-03T05:30:00.592Z,3.90
2023-03-03T05:31:00.461Z,3.90
2023-03-03T05:32:00.442Z,3.90
2023-03-03T05:33:00.451Z,3.90
2023-03-03T05:34:00.433Z,3.90
2023-03-03T05:35:00.813Z,3.90
2023-03-03T05:36:00.441Z,3.90
2023-03-03T05:37:00.425Z,3.90
2023-03-03T05:38:00.480Z,3.90
2023-03-03T05:39:00.441Z,3.90
2023-03-03T05:40:00.439Z,3.90
2023-03-03T05:41:00.437Z,3.90
2023-03-03T05:42:00.620Z,3.90
2023-03-03T05:43:00.599Z,4.10
2023-03-03T05:44:00.413Z,4.10
2023-03-03T05:45:00.423Z,4.10
2023-03-03T05:46:00.482Z,4.10
2023-03-03T05:47:00.442Z,4.10
2023-03-03T05:48:00.423Z,4.10
2023-03-03T05:49:00.815Z,4.10
2023-03-03T05:50:00.458Z,4.10
2023-03-03T05:51:00.457Z,4.10
2023-03-03T05:52:00.772Z,4.10
2023-03-03T05:53:01.309Z,4.10
2023-03-03T05:54:00.440Z,4.10
2023-03-03T05:55:00.442Z,4.10
2023-03-03T05:56:00.438Z,4.10
2023-03-03T05:57:00.459Z,4.10
2023-03-03T05:58:00.426Z,4.10
2023-03-03T05:59:00.441Z,4.10
2023-03-03T06:00:01.046Z,4.10
2023-03-03T06:01:00.620Z,4.10
2023-03-03T06:02:00.457Z,4.10
2023-03-03T06:03:00.639Z,4.10
2023-03-03T06:04:00.427Z,4.10
2023-03-03T06:05:00.453Z,4.10
2023-03-03T06:06:00.529Z,4.10
2023-03-03T06:07:00.439Z,4.10
2023-03-03T06:08:00.497Z,4.10
2023-03-03T06:09:00.594Z,4.10
2023-03-03T06:10:00.484Z,4.10
2023-03-03T06:11:00.548Z,4.10
2023-03-03T06:12:00.420Z,4.10
2023-03-03T06:13:00.434Z,4.40
2023-03-03T06:14:00.421Z,4.40
2023-03-03T06:15:00.438Z,4.40
2023-03-03T06:16:00.477Z,4.40
2023-03-03T06:17:00.431Z,4.40
2023-03-03T06:18:00.438Z,4.40
2023-03-03T06:19:00.448Z,4.40
2023-03-03T06:20:00.834Z,4.40
2023-03-03T06:21:00.472Z,4.40
2023-03-03T06:22:00.945Z,4.40
2023-03-03T06:23:00.574Z,4.40
2023-03-03T06:24:00.426Z,4.40
2023-03-03T06:25:00.426Z,4.40
2023-03-03T06:26:00.428Z,4.40
2023-03-03T06:27:00.537Z,4.40
2023-03-03T06:28:00.937Z,4.40
2023-03-03T06:29:00.727Z,4.40
2023-03-03T06:30:00.535Z,4.40
2023-03-03T06:31:00.439Z,4.40
2023-03-03T06:32:00.581Z,4.40
2023-03-03T06:33:00.446Z,4.40
2023-03-03T06:34:00.443Z,4.40
2023-03-03T06:35:00.450Z,4.40
2023-03-03T06:36:00.454Z,4.40
2023-03-03T06:37:00.451Z,4.40
2023-03-03T06:38:00.459Z,4.40
2023-03-03T06:39:00.691Z,4.40
2023-03-03T06:40:00.471Z,4.40
2023-03-03T06:41:00.420Z,4.40
2023-03-03T06:42:00.441Z,4.40
2023-03-03T06:43:00.428Z,4.30
2023-03-03T06:44:00.537Z,4.30
2023-03-03T06:45:00.442Z,4.30
2023-03-03T06:46:00.493Z,4.30
2023-03-03T06:47:00.562Z,4.30
2023-03-03T06:48:00.441Z,4.30
2023-03-03T06:49:00.479Z,4.30
2023-03-03T06:50:00.420Z,4.30
2023-03-03T06:51:01.489Z,4.30
2023-03-03T06:52:01.282Z,4.30
2023-03-03T06:53:03.700Z,4.30
2023-03-03T06:54:01.723Z,4.30
2023-03-03T06:55:08.651Z,4.30
2023-03-03T06:56:00.906Z,4.30
2023-03-03T06:57:10.380Z,4.30
2023-03-03T06:58:00.700Z,4.30
2023-03-03T06:59:00.428Z,4.30
2023-03-03T07:00:10.340Z,4.30
2023-03-03T07:01:00.699Z,4.30
2023-03-03T07:02:00.879Z,4.30
2023-03-03T07:03:07.371Z,4.30
2023-03-03T07:04:00.672Z,4.30
2023-03-03T07:05:00.453Z,4.30
2023-03-03T07:06:01.021Z,4.30
2023-03-03T07:07:10.034Z,4.30
2023-03-03T07:08:00.467Z,4.30
2023-03-03T07:09:00.449Z,4.30
2023-03-03T07:10:00.466Z,4.30
2023-03-03T07:11:01.301Z,4.30
2023-03-03T07:12:01.731Z,4.30
2023-03-03T07:13:05.357Z,4.60
2023-03-03T07:14:01.048Z,4.60
2023-03-03T07:15:10.358Z,4.60
2023-03-03T07:16:05.242Z,4.60
2023-03-03T07:17:03.707Z,4.60
2023-03-03T07:18:00.454Z,4.60
2023-03-03T07:19:00.508Z,4.60
2023-03-03T07:20:00.613Z,4.60
2023-03-03T07:21:10.348Z,4.60
2023-03-03T07:22:10.369Z,4.60
2023-03-03T07:23:11.398Z,4.60
2023-03-03T07:24:07.647Z,4.60
2023-03-03T07:25:00.519Z,4.60
2023-03-03T07:26:00.451Z,4.60
2023-03-03T07:27:10.360Z,4.60
2023-03-03T07:28:10.361Z,4.60
2023-03-03T07:29:03.074Z,4.60
2023-03-03T07:30:10.351Z,4.60
2023-03-03T07:31:00.508Z,4.60
2023-03-03T07:32:00.856Z,4.60
2023-03-03T07:33:00.451Z,4.60
2023-03-03T07:34:00.991Z,4.60
2023-03-03T07:35:01.598Z,4.60
2023-03-03T07:36:01.685Z,4.60
2023-03-03T07:37:02.787Z,4.60
2023-03-03T07:38:00.472Z,4.60
2023-03-03T07:39:02.428Z,4.60
2023-03-03T07:40:05.761Z,4.60
2023-03-03T07:41:01.878Z,4.60
2023-03-03T07:42:07.890Z,4.60
2023-03-03T07:43:01.455Z,4.50
2023-03-03T07:44:00.437Z,4.50
2023-03-03T07:45:00.866Z,4.50
2023-03-03T07:46:02.757Z,4.50
2023-03-03T07:47:10.366Z,4.50
2023-03-03T07:48:07.133Z,4.50
2023-03-03T07:49:01.289Z,4.50
2023-03-03T07:50:06.912Z,4.50
2023-03-03T07:51:03.070Z,4.50
2023-03-03T07:52:00.885Z,4.50
2023-03-03T07:53:00.720Z,4.50
2023-03-03T07:54:10.359Z,4.50
2023-03-03T07:55:01.309Z,4.50
2023-03-03T07:56:00.646Z,4.50
2023-03-03T07:57:10.259Z,4.50
2023-03-03T07:58:10.362Z,4.50
2023-03-03T07:59:02.494Z,4.50
2023-03-03T08:00:07.874Z,4.50
2023-03-03T08:01:10.353Z,4.50
2023-03-03T08:02:00.521Z,4.50
2023-03-03T08:03:02.940Z,4.50
2023-03-03T08:04:00.557Z,4.50
2023-03-03T08:05:01.767Z,4.50
2023-03-03T08:06:07.264Z,4.50
2023-03-03T08:07:01.221Z,4.50
2023-03-03T08:08:10.389Z,4.50
2023-03-03T08:09:03.694Z,4.50
2023-03-03T08:10:00.923Z,4.50
2023-03-03T08:11:00.611Z,4.50
2023-03-03T08:12:10.352Z,4.50
2023-03-03T08:13:04.333Z,4.00
2023-03-03T08:14:00.458Z,4.00
2023-03-03T08:15:10.348Z,4.00
2023-03-03T08:16:03.448Z,4.00
2023-03-03T08:17:01.959Z,4.00
2023-03-03T08:18:00.745Z,4.00
2023-03-03T08:19:02.440Z,4.00
2023-03-03T08:20:00.599Z,4.00
2023-03-03T08:21:05.515Z,4.00
2023-03-03T08:22:08.220Z,4.00
2023-03-03T08:23:00.466Z,4.00
2023-03-03T08:24:00.444Z,4.00
2023-03-03T08:25:00.727Z,4.00
2023-03-03T08:26:00.442Z,4.00
2023-03-03T08:27:00.438Z,4.00
2023-03-03T08:28:00.425Z,4.00
2023-03-03T08:29:00.443Z,4.00
2023-03-03T08:30:00.460Z,4.00
2023-03-03T08:31:15.280Z,4.00
2023-03-03T08:32:00.550Z,4.00
2023-03-03T08:33:00.662Z,4.00
2023-03-03T08:34:00.438Z,4.00
2023-03-03T08:35:00.452Z,4.00
2023-03-03T08:36:00.525Z,4.00
2023-03-03T08:37:00.475Z,4.00
2023-03-03T08:38:00.489Z,4.00
2023-03-03T08:39:00.684Z,4.00
2023-03-03T08:40:00.434Z,4.00
2023-03-03T08:41:00.499Z,4.00
2023-03-03T08:42:00.417Z,4.00
2023-03-03T08:43:00.608Z,4.60
2023-03-03T08:44:00.436Z,4.60
2023-03-03T08:45:00.470Z,4.60
2023-03-03T08:46:01.447Z,4.60
2023-03-03T08:47:00.440Z,4.60
2023-03-03T08:48:00.444Z,4.60
2023-03-03T08:49:00.522Z,4.60
2023-03-03T08:50:00.446Z,4.60
2023-03-03T08:51:00.461Z,4.60
2023-03-03T08:52:00.454Z,4.60
2023-03-03T08:53:00.495Z,4.60
2023-03-03T08:54:00.571Z,4.60
2023-03-03T08:55:00.440Z,4.60
2023-03-03T08:56:00.437Z,4.60
2023-03-03T08:57:00.442Z,4.60
2023-03-03T08:58:00.551Z,4.60
2023-03-03T08:59:02.454Z,4.60
2023-03-03T09:00:00.481Z,4.60
2023-03-03T09:01:00.449Z,4.60
2023-03-03T09:02:00.492Z,4.60
2023-03-03T09:03:00.751Z,4.60
2023-03-03T09:04:00.444Z,4.60
2023-03-03T09:05:00.452Z,4.60
2023-03-03T09:06:00.469Z,4.60
2023-03-03T09:07:00.581Z,4.60
2023-03-03T09:08:00.806Z,4.60
2023-03-03T09:09:00.850Z,4.60
2023-03-03T09:10:00.788Z,4.60
2023-03-03T09:11:00.685Z,4.60
2023-03-03T09:12:05.609Z,4.60
2023-03-03T09:13:05.921Z,3.30
2023-03-03T09:14:05.374Z,3.30
2023-03-03T09:15:06.821Z,3.30
2023-03-03T09:16:00.503Z,3.30
2023-03-03T09:17:00.460Z,3.30
2023-03-03T09:18:09.762Z,3.30
2023-03-03T09:19:10.334Z,3.30
2023-03-03T09:20:10.340Z,3.30
2023-03-03T09:21:00.460Z,3.30
2023-03-03T09:22:10.353Z,3.30
2023-03-03T09:23:10.341Z,3.30
2023-03-03T09:24:00.444Z,3.30
2023-03-03T09:25:00.922Z,3.30
2023-03-03T09:26:10.414Z,3.30
2023-03-03T09:27:00.553Z,3.30
2023-03-03T09:28:02.284Z,3.30
2023-03-03T09:29:07.860Z,3.30
2023-03-03T09:30:01.539Z,3.30
2023-03-03T09:31:01.340Z,3.30
2023-03-03T09:32:07.832Z,3.30
2023-03-03T09:33:01.227Z,3.30
2023-03-03T09:34:00.476Z,3.30
2023-03-03T09:35:10.332Z,3.30
2023-03-03T09:36:03.140Z,3.30
2023-03-03T09:37:00.590Z,3.30
2023-03-03T09:38:01.010Z,3.30
2023-03-03T09:39:08.750Z,3.30
2023-03-03T09:40:10.342Z,3.30
2023-03-03T09:41:00.413Z,3.30
2023-03-03T09:42:10.349Z,3.30
2023-03-03T09:43:03.765Z,3.60
2023-03-03T09:44:10.329Z,3.60
2023-03-03T09:45:10.340Z,3.60
2023-03-03T09:46:01.430Z,3.60
2023-03-03T09:47:00.496Z,3.60
2023-03-03T09:48:03.738Z,3.60
2023-03-03T09:49:07.733Z,3.60
2023-03-03T09:50:10.331Z,3.60
2023-03-03T09:51:01.437Z,3.60
2023-03-03T09:52:10.346Z,3.60
2023-03-03T09:53:00.425Z,3.60
2023-03-03T09:54:10.352Z,3.60
2023-03-03T09:55:10.364Z,3.60
2023-03-03T09:56:00.406Z,3.60
2023-03-03T09:57:00.413Z,3.60
2023-03-03T09:58:10.340Z,3.60
2023-03-03T09:59:10.366Z,3.60
2023-03-03T10:00:10.357Z,3.60
2023-03-03T10:01:00.406Z,3.60
2023-03-03T10:02:00.417Z,3.60
2023-03-03T10:03:09.722Z,3.60
2023-03-03T10:04:03.714Z,3.60
2023-03-03T10:05:03.703Z,3.60
2023-03-03T10:06:07.451Z,3.60
2023-03-03T10:07:10.350Z,3.60
2023-03-03T10:08:09.270Z,3.60
2023-03-03T10:09:10.345Z,3.60
2023-03-03T10:10:10.355Z,3.60
2023-03-03T10:11:10.350Z,3.60
2023-03-03T10:12:06.547Z,3.60
2023-03-03T10:13:10.355Z,4.30
2023-03-03T10:14:00.419Z,4.30
2023-03-03T10:15:01.432Z,4.30
2023-03-03T10:16:10.420Z,4.30
2023-03-03T10:17:10.345Z,4.30
2023-03-03T10:18:07.125Z,4.30
2023-03-03T10:19:02.130Z,4.30
2023-03-03T10:20:00.429Z,4.30
2023-03-03T10:21:09.593Z,4.30
2023-03-03T10:22:10.348Z,4.30
2023-03-03T10:23:10.336Z,4.30
2023-03-03T10:24:08.501Z,4.30
2023-03-03T10:25:01.430Z,4.30
2023-03-03T10:26:00.411Z,4.30
2023-03-03T10:27:13.071Z,4.30
2023-03-03T10:28:00.415Z,4.30
2023-03-03T10:29:10.348Z,4.30
2023-03-03T10:30:06.238Z,4.30
2023-03-03T10:31:12.064Z,4.30
2023-03-03T10:32:00.675Z,4.30
2023-03-03T10:33:04.988Z,4.30
2023-03-03T10:34:10.337Z,4.30
2023-03-03T10:35:10.344Z,4.30
2023-03-03T10:36:10.610Z,4.30
2023-03-03T10:37:00.411Z,4.30
2023-03-03T10:38:00.421Z,4.30
2023-03-03T10:39:09.034Z,4.30
2023-03-03T10:40:07.165Z,4.30
2023-03-03T10:41:01.430Z,4.30
2023-03-03T10:42:10.369Z,4.30
2023-03-03T10:43:12.365Z,3.60
2023-03-03T10:44:07.128Z,3.60
2023-03-03T10:45:10.376Z,3.60
2023-03-03T10:46:10.391Z,3.60
2023-03-03T10:47:07.141Z,3.60
2023-03-03T10:48:08.728Z,3.60
2023-03-03T10:49:01.014Z,3.60
2023-03-03T10:50:10.356Z,3.60
2023-03-03T10:51:00.426Z,3.60
2023-03-03T10:52:01.024Z,3.60
2023-03-03T10:53:10.357Z,3.60
2023-03-03T10:54:08.591Z,3.60
2023-03-03T10:55:03.700Z,3.60
2023-03-03T10:56:03.678Z,3.60
2023-03-03T10:57:07.853Z,3.60
2023-03-03T10:58:01.469Z,3.60
2023-03-03T10:59:04.420Z,3.60
2023-03-03T11:00:03.696Z,3.60
2023-03-03T11:01:06.756Z,3.60
2023-03-03T11:02:03.533Z,3.60
2023-03-03T11:03:10.336Z,3.60
2023-03-03T11:04:06.704Z,3.60
2023-03-03T11:05:09.192Z,3.60
2023-03-03T11:06:04.357Z,3.60
2023-03-03T11:07:06.049Z,3.60
2023-03-03T11:08:02.452Z,3.60
2023-03-03T11:09:07.095Z,3.60
2023-03-03T11:10:04.595Z,3.60
2023-03-03T11:11:06.930Z,3.60
2023-03-03T11:12:10.349Z,3.60
2023-03-03T11:13:00.415Z,3.60
2023-03-03T11:14:00.978Z,3.80
2023-03-03T11:15:10.353Z,3.80
2023-03-03T11:16:10.340Z,3.80
2023-03-03T11:17:10.344Z,3.80
2023-03-03T11:18:04.967Z,3.80
2023-03-03T11:19:10.338Z,3.80
2023-03-03T11:20:03.713Z,3.80
2023-03-03T11:21:10.350Z,3.80
2023-03-03T11:22:10.363Z,3.80
2023-03-03T11:23:10.356Z,3.80
2023-03-03T11:24:10.364Z,3.80
2023-03-03T11:25:07.450Z,3.80
2023-03-03T11:26:08.012Z,3.80
2023-03-03T11:27:10.356Z,3.80
2023-03-03T11:28:10.347Z,3.80
2023-03-03T11:29:09.605Z,3.80
2023-03-03T11:30:05.877Z,3.80
2023-03-03T11:31:10.384Z,3.80
2023-03-03T11:32:07.995Z,3.80
2023-03-03T11:33:02.492Z,3.80
2023-03-03T11:34:08.748Z,3.80
2023-03-03T11:35:10.355Z,3.80
2023-03-03T11:36:08.128Z,3.80
2023-03-03T11:37:06.923Z,3.80
2023-03-03T11:38:04.777Z,3.80
2023-03-03T11:39:01.426Z,3.80
2023-03-03T11:40:08.758Z,3.80
2023-03-03T11:41:03.571Z,3.80
2023-03-03T11:42:10.358Z,3.80
2023-03-03T11:43:04.731Z,4.20
2023-03-03T11:44:04.440Z,4.20
2023-03-03T11:45:03.355Z,4.20
2023-03-03T11:46:04.813Z,4.20
2023-03-03T11:47:08.893Z,4.20
2023-03-03T11:48:10.369Z,4.20
2023-03-03T11:49:05.670Z,4.20
2023-03-03T11:50:02.362Z,4.20
2023-03-03T11:51:10.369Z,4.20
2023-03-03T11:52:01.432Z,4.20
2023-03-03T11:53:01.459Z,4.20
2023-03-03T11:54:04.613Z,4.20
2023-03-03T11:55:07.687Z,4.20
2023-03-03T11:56:05.277Z,4.20
2023-03-03T11:57:10.361Z,4.20
2023-03-03T11:58:10.342Z,4.20
2023-03-03T11:59:10.343Z,4.20
2023-03-03T12:00:04.080Z,4.20
2023-03-03T12:01:00.734Z,4.20
2023-03-03T12:02:10.344Z,4.20
2023-03-03T12:03:05.065Z,4.20
2023-03-03T12:04:05.329Z,4.20
2023-03-03T12:05:10.426Z,4.20
2023-03-03T12:06:12.569Z,4.20
2023-03-03T12:07:18.649Z,4.20
2023-03-03T12:08:07.975Z,4.20
2023-03-03T12:09:10.338Z,4.20
2023-03-03T12:10:00.450Z,4.20
2023-03-03T12:11:01.428Z,4.20
2023-03-03T12:12:06.457Z,4.20
2023-03-03T12:13:03.861Z,4.20
2023-03-03T12:14:07.692Z,5.10
2023-03-03T12:15:07.433Z,5.10
2023-03-03T12:16:06.630Z,5.10
2023-03-03T12:17:05.010Z,5.10
2023-03-03T12:18:00.409Z,5.10
2023-03-03T12:19:00.415Z,5.10
2023-03-03T12:20:01.443Z,5.10
2023-03-03T12:21:10.342Z,5.10
2023-03-03T12:22:10.331Z,5.10
2023-03-03T12:23:06.991Z,5.10
2023-03-03T12:24:10.355Z,5.10
2023-03-03T12:25:03.714Z,5.10
2023-03-03T12:26:04.883Z,5.10
2023-03-03T12:27:00.432Z,5.10
2023-03-03T12:28:07.829Z,5.10
2023-03-03T12:29:05.297Z,5.10
2023-03-03T12:30:10.379Z,5.10
2023-03-03T12:31:03.809Z,5.10
2023-03-03T12:32:10.362Z,5.10
2023-03-03T12:33:10.345Z,5.10
2023-03-03T12:34:05.318Z,5.10
2023-03-03T12:35:06.563Z,5.10
2023-03-03T12:36:08.407Z,5.10
2023-03-03T12:37:01.452Z,5.10
2023-03-03T12:38:03.734Z,5.10
2023-03-03T12:39:10.345Z,5.10
2023-03-03T12:40:06.314Z,5.10
2023-03-03T12:41:10.347Z,5.10
2023-03-03T12:42:03.282Z,5.10
2023-03-03T12:43:01.433Z,5.10
2023-03-03T12:44:10.363Z,4.50
2023-03-03T12:45:10.364Z,4.50
2023-03-03T12:46:00.429Z,4.50
2023-03-03T12:47:10.387Z,4.50
2023-03-03T12:48:07.047Z,4.50
2023-03-03T12:49:00.539Z,4.50
2023-03-03T12:50:10.351Z,4.50
2023-03-03T12:51:00.421Z,4.50
2023-03-03T12:52:10.352Z,4.50
2023-03-03T12:53:10.193Z,4.50
2023-03-03T12:54:01.433Z,4.50
2023-03-03T12:55:03.722Z,4.50
2023-03-03T12:56:03.860Z,4.50
2023-03-03T12:57:09.222Z,4.50
2023-03-03T12:58:01.446Z,4.50
2023-03-03T12:59:07.339Z,4.50
2023-03-03T13:00:01.449Z,4.50
2023-03-03T13:01:03.787Z,4.50
2023-03-03T13:02:10.361Z,4.50
2023-03-03T13:03:10.411Z,4.50
2023-03-03T13:04:09.198Z,4.50
2023-03-03T13:05:07.042Z,4.50
2023-03-03T13:06:06.064Z,4.50
2023-03-03T13:07:10.352Z,4.50
2023-03-03T13:08:01.445Z,4.50
2023-03-03T13:09:00.415Z,4.50
2023-03-03T13:10:10.370Z,4.50
2023-03-03T13:11:06.202Z,4.50
2023-03-03T13:12:06.127Z,4.50
2023-03-03T13:13:10.361Z,4.00
2023-03-03T13:14:10.104Z,4.00
2023-03-03T13:15:03.968Z,4.00
2023-03-03T13:16:06.581Z,4.00
2023-03-03T13:17:10.440Z,4.00
2023-03-03T13:18:10.349Z,4.00